Сообщение об ошибке

  • Warning: ini_set(): Headers already sent. You cannot change the session module's ini settings at this time in drupal_environment_initialize() (line 699 of /home/a/auditpro/2.auditpro.beget.tech/public_html/st/includes/bootstrap.inc).
  • Warning: ini_set(): Headers already sent. You cannot change the session module's ini settings at this time in drupal_environment_initialize() (line 700 of /home/a/auditpro/2.auditpro.beget.tech/public_html/st/includes/bootstrap.inc).
  • Warning: ini_set(): Headers already sent. You cannot change the session module's ini settings at this time in drupal_environment_initialize() (line 701 of /home/a/auditpro/2.auditpro.beget.tech/public_html/st/includes/bootstrap.inc).
  • Warning: ini_set(): Headers already sent. You cannot change the session module's ini settings at this time in drupal_environment_initialize() (line 704 of /home/a/auditpro/2.auditpro.beget.tech/public_html/st/includes/bootstrap.inc).
  • Warning: ini_set(): Headers already sent. You cannot change the session module's ini settings at this time in drupal_environment_initialize() (line 706 of /home/a/auditpro/2.auditpro.beget.tech/public_html/st/includes/bootstrap.inc).
  • Warning: ini_set(): Headers already sent. You cannot change the session module's ini settings at this time in include_once() (line 290 of /home/a/auditpro/2.auditpro.beget.tech/public_html/st/sites/default/settings.php).
  • Warning: ini_set(): Headers already sent. You cannot change the session module's ini settings at this time in include_once() (line 291 of /home/a/auditpro/2.auditpro.beget.tech/public_html/st/sites/default/settings.php).
  • Warning: ini_set(): Headers already sent. You cannot change the session module's ini settings at this time in include_once() (line 299 of /home/a/auditpro/2.auditpro.beget.tech/public_html/st/sites/default/settings.php).
  • Warning: ini_set(): Headers already sent. You cannot change the session module's ini settings at this time in include_once() (line 306 of /home/a/auditpro/2.auditpro.beget.tech/public_html/st/sites/default/settings.php).
  • Warning: ini_set(): Headers already sent. You cannot change the session module's ini settings at this time in drupal_settings_initialize() (line 826 of /home/a/auditpro/2.auditpro.beget.tech/public_html/st/includes/bootstrap.inc).
  • Warning: ini_set(): Headers already sent. You cannot change the session module's ini settings at this time in drupal_settings_initialize() (line 835 of /home/a/auditpro/2.auditpro.beget.tech/public_html/st/includes/bootstrap.inc).
  • Warning: session_name(): Cannot change session name when headers already sent in drupal_settings_initialize() (line 838 of /home/a/auditpro/2.auditpro.beget.tech/public_html/st/includes/bootstrap.inc).

Починки

СКИДКИ НА СМАРТФОНЫ!

Карта отелей и гостиниц, располагающихся рядом с аэропортом Починки :

Починки Тверская область 56° 40' 8.1012" N, 35° 50' 26.7" E
Код аэродрома ИКАО
HEG9
Код аэродрома RU
ХЕГ9
Координаты
N56.66892° E035.84075°
Превышение над уровнем моря
201
Основная полоса
Курс магнитный
Длина основной ВПП
Ширина основной ВПП
Покрытие основной ВПП
Освещение ВПП
Тип: 
Вертодром
Класс аэродрома: 
Принадлежность: 
АОН
Статус: 
Действующий
Сайт: 
E-mail аэродрома: 
Страна: 
Россия
Регион: 
Тверская область
Город: 
Дополнительная информация: 
Оператор: физическое лицо АОН. Прилет на дозаправку только по предварительному согласованию.

Скидки на навигаторы!

Найти трансфер

С помощью этой формы Вы можете найти трансфер из аэропорта Починки в город, аэропорт или вокзал:

Погода в аэропортах:

Авиационная погода в аэропорту Центральный

Регион: 
Погода METAR: 
UNOO 301930Z 16002MPS 8000 -SN BKN007 BKN033 M18/M20 Q1024 R25/820550 NOSIG RMK QFE760
Время наблюдения
2023-01-30T19:30:00Z
Температура C
-18.0
Точка росы
-20.0
Направление ветра
160
Скорость ветра (узлы)
4
Метео видимость
4.97
Облачность
BKN
BKN
Нижняя граница облачности (футы)
700
3300
Явления погоды
-SN
Условия полета
IFR
Аэропорт подробнее: 
BKN – значительная (рассеянная, разорванная) облачность;
-SN – слабый снег;

Авиационная погода в Каяани

Регион: 
Погода METAR: 
EFKI 301920Z AUTO 36005KT 3600 -SN SCT002 OVC015 M00/M01 Q0969
Время наблюдения
2023-01-30T19:20:00Z
Температура C
0.0
Точка росы
-1.0
Направление ветра
360
Скорость ветра (узлы)
5
Метео видимость
2.24
Облачность
SCT
OVC
Нижняя граница облачности (футы)
200
1500
Явления погоды
-SN
Условия полета
IFR
SCT – разбросанная отдельная облачность; OVC – сплошная облачность;
-SN – слабый снег;

Авиационная погода в Самсуне

Регион: 
Погода METAR: 
LTFH 301950Z 00000KT 9999 -SHRA FEW019 BKN028 BKN080 05/05 Q1012 NOSIG
Время наблюдения
2023-01-30T19:50:00Z
Температура C
5.0
Точка росы
5.0
Направление ветра
0
Скорость ветра (узлы)
0
Метео видимость
6.21
Облачность
FEW
BKN
BKN
Нижняя граница облачности (футы)
1900
2800
8000
Явления погоды
-SHRA
Условия полета
MVFR
FEW – незначительная облачность; BKN – значительная (рассеянная, разорванная) облачность;
-SHRA - слабый ливневой дождь;

Авиационная погода в Сыктывкаре

Регион: 
Погода METAR: 
UUYY 301930Z 18006MPS 9999 -SHSN SCT015CB OVC030 M06/M08 Q1000 R18/490235 NOSIG RMK QFE741/0988
Время наблюдения
2023-01-30T19:30:00Z
Температура C
-6.0
Точка росы
-8.0
Направление ветра
180
Скорость ветра (узлы)
12
Метео видимость
6.21
Облачность
SCT
OVC
Нижняя граница облачности (футы)
1500
3000
Явления погоды
-SHSN
Условия полета
MVFR
Аэропорт подробнее: 
SCT – разбросанная отдельная облачность; OVC – сплошная облачность;
-SHSN - слабый ливневой снег;